createdAt,value
2022-10-09T00:01:17.133Z,100.00
2022-10-09T00:03:45.982Z,100.00
2022-10-09T00:06:16.548Z,100.00
2022-10-09T00:08:46.332Z,100.00
2022-10-09T00:11:19.095Z,100.00
2022-10-09T00:13:45.640Z,100.00
2022-10-09T00:16:14.643Z,100.00
2022-10-09T00:18:43.084Z,100.00
2022-10-09T00:21:31.248Z,100.00
2022-10-09T00:24:00.803Z,100.00
2022-10-09T00:26:27.771Z,100.00
2022-10-09T00:28:55.789Z,100.00
2022-10-09T00:31:23.103Z,100.00
2022-10-09T00:33:49.946Z,100.00
2022-10-09T00:36:23.037Z,100.00
2022-10-09T00:38:49.803Z,100.00
2022-10-09T00:41:19.885Z,100.00
2022-10-09T00:43:52.880Z,100.00
2022-10-09T00:46:35.861Z,100.00
2022-10-09T00:49:23.634Z,100.00
2022-10-09T00:51:51.731Z,100.00
2022-10-09T00:54:22.622Z,100.00
2022-10-09T00:56:49.877Z,100.00
2022-10-09T00:59:17.858Z,100.00
2022-10-09T01:01:45.386Z,100.00
2022-10-09T01:04:12.492Z,100.00
2022-10-09T01:07:05.697Z,100.00
2022-10-09T01:09:39.727Z,100.00
2022-10-09T01:12:09.133Z,100.00
2022-10-09T01:14:46.606Z,100.00
2022-10-09T01:18:09.191Z,100.00
2022-10-09T01:20:49.017Z,100.00
2022-10-09T01:23:31.188Z,100.00
2022-10-09T01:26:09.745Z,100.00
2022-10-09T01:28:39.122Z,100.00
2022-10-09T01:31:07.557Z,100.00
2022-10-09T01:33:34.803Z,100.00
2022-10-09T01:36:03.173Z,100.00
2022-10-09T01:38:31.150Z,100.00
2022-10-09T01:40:58.639Z,100.00
2022-10-09T01:43:25.190Z,100.00
2022-10-09T01:45:51.794Z,100.00
2022-10-09T01:48:24.857Z,100.00
2022-10-09T01:50:59.406Z,100.00
2022-10-09T01:53:26.352Z,100.00
2022-10-09T01:56:02.538Z,100.00
2022-10-09T01:59:02.176Z,100.00
2022-10-09T02:01:35.759Z,100.00
2022-10-09T02:04:05.803Z,100.00
2022-10-09T02:06:34.149Z,100.00
2022-10-09T02:09:04.133Z,100.00
2022-10-09T02:11:33.216Z,100.00
2022-10-09T02:13:59.865Z,100.00
2022-10-09T02:16:45.926Z,100.00
2022-10-09T02:19:50.244Z,100.00
2022-10-09T02:22:27.698Z,100.00
2022-10-09T02:24:56.655Z,100.00
2022-10-09T02:27:23.357Z,100.00
2022-10-09T02:29:50.825Z,100.00
2022-10-09T02:32:17.714Z,100.00
2022-10-09T02:34:44.682Z,100.00
2022-10-09T02:37:11.238Z,100.00
2022-10-09T02:39:38.048Z,100.00
2022-10-09T02:42:04.673Z,100.00
2022-10-09T02:44:31.261Z,100.00
2022-10-09T02:46:57.768Z,100.00
2022-10-09T02:49:24.357Z,100.00
2022-10-09T02:51:50.885Z,100.00
2022-10-09T02:54:17.793Z,100.00
2022-10-09T02:56:44.329Z,100.00
2022-10-09T02:59:10.907Z,100.00
2022-10-09T03:01:37.542Z,100.00
2022-10-09T03:04:05.051Z,100.00
2022-10-09T03:06:32.004Z,100.00
2022-10-09T03:08:58.534Z,100.00
2022-10-09T03:11:26.538Z,100.00
2022-10-09T03:13:54.394Z,100.00
2022-10-09T03:16:26.347Z,100.00
2022-10-09T03:18:54.059Z,100.00
2022-10-09T03:21:23.841Z,100.00
2022-10-09T03:23:50.533Z,100.00
2022-10-09T03:26:20.682Z,100.00
2022-10-09T03:28:49.354Z,100.00
2022-10-09T03:31:33.395Z,100.00
2022-10-09T03:34:04.657Z,100.00
2022-10-09T03:36:31.205Z,100.00
2022-10-09T03:38:57.747Z,99.23
2022-10-09T03:41:24.335Z,98.73
2022-10-09T03:43:50.886Z,97.62
2022-10-09T03:46:17.480Z,96.45
2022-10-09T03:48:44.078Z,96.48
2022-10-09T03:51:10.689Z,95.13
2022-10-09T03:53:37.312Z,94.89
2022-10-09T03:56:03.875Z,95.39
2022-10-09T03:58:30.510Z,96.17
2022-10-09T04:00:57.085Z,96.83
2022-10-09T04:03:24.206Z,96.68
2022-10-09T04:05:50.694Z,97.05
2022-10-09T04:08:17.220Z,96.83
2022-10-09T04:10:43.887Z,96.21
2022-10-09T04:13:10.543Z,95.13
2022-10-09T04:15:37.701Z,95.11
2022-10-09T04:18:04.949Z,95.40
2022-10-09T04:20:31.918Z,95.33
2022-10-09T04:22:58.445Z,94.27
2022-10-09T04:25:25.053Z,94.53
2022-10-09T04:27:51.562Z,93.78
2022-10-09T04:30:18.066Z,92.88
2022-10-09T04:32:44.676Z,93.47
2022-10-09T04:35:11.226Z,93.71
2022-10-09T04:37:37.857Z,93.61
2022-10-09T04:40:04.957Z,93.64
2022-10-09T04:42:31.469Z,94.05
2022-10-09T04:44:58.138Z,93.90
2022-10-09T04:47:24.720Z,93.52
2022-10-09T04:49:51.236Z,94.39
2022-10-09T04:52:17.810Z,93.70
2022-10-09T04:54:44.380Z,93.60
2022-10-09T04:57:10.887Z,94.91
2022-10-09T04:59:37.425Z,94.97
2022-10-09T05:02:04.095Z,94.97
2022-10-09T05:04:30.801Z,95.93
2022-10-09T05:06:57.330Z,96.25
2022-10-09T05:09:23.910Z,96.98
2022-10-09T05:11:50.728Z,97.56
2022-10-09T05:14:17.278Z,97.40
2022-10-09T05:17:08.176Z,97.07
2022-10-09T05:19:31.362Z,97.14
2022-10-09T05:21:58.682Z,95.84
2022-10-09T05:24:25.294Z,95.80
2022-10-09T05:26:51.945Z,95.15
2022-10-09T05:29:18.644Z,95.97
2022-10-09T05:31:49.328Z,94.75
2022-10-09T05:34:16.243Z,94.39
2022-10-09T05:36:42.787Z,93.05
2022-10-09T05:39:09.362Z,92.84
2022-10-09T05:41:36.047Z,93.52
2022-10-09T05:44:03.660Z,91.11
2022-10-09T05:46:30.981Z,90.06
2022-10-09T05:49:06.749Z,89.68
2022-10-09T05:51:36.667Z,88.97
2022-10-09T05:54:04.715Z,87.78
2022-10-09T05:56:35.117Z,86.91
2022-10-09T05:59:04.445Z,85.02
2022-10-09T06:01:37.031Z,83.70
2022-10-09T06:04:04.700Z,83.98
2022-10-09T06:06:35.557Z,82.86
2022-10-09T06:09:02.125Z,82.04
2022-10-09T06:11:34.433Z,82.99
2022-10-09T06:14:02.489Z,81.27
2022-10-09T06:16:32.586Z,81.43
2022-10-09T06:18:59.577Z,80.87
2022-10-09T06:21:26.740Z,80.53
2022-10-09T06:23:58.081Z,80.73
2022-10-09T06:26:26.296Z,80.47
2022-10-09T06:28:53.013Z,81.61
2022-10-09T06:31:22.598Z,80.71
2022-10-09T06:33:50.734Z,79.24
2022-10-09T06:36:21.115Z,79.48
2022-10-09T06:38:48.097Z,79.97
2022-10-09T06:41:20.616Z,78.76
2022-10-09T06:43:58.526Z,78.42
2022-10-09T06:46:28.190Z,79.71
2022-10-09T06:48:55.060Z,80.64
2022-10-09T06:51:23.607Z,79.54
2022-10-09T06:53:53.389Z,78.91
2022-10-09T06:56:22.544Z,79.00
2022-10-09T06:58:49.635Z,77.10
2022-10-09T07:01:19.672Z,75.07
2022-10-09T07:03:48.764Z,75.65
2022-10-09T07:06:20.549Z,75.87
2022-10-09T07:08:49.769Z,76.01
2022-10-09T07:11:21.001Z,75.23
2022-10-09T07:13:49.822Z,74.86
2022-10-09T07:16:21.277Z,74.95
2022-10-09T07:18:48.312Z,76.83
2022-10-09T07:21:15.780Z,76.38
2022-10-09T07:23:42.765Z,76.48
2022-10-09T07:26:14.089Z,75.55
2022-10-09T07:28:41.979Z,75.47
2022-10-09T07:31:08.889Z,75.11
2022-10-09T07:33:35.573Z,74.85
2022-10-09T07:36:04.589Z,74.48
2022-10-09T07:38:31.958Z,73.52
2022-10-09T07:41:06.816Z,71.92
2022-10-09T07:43:35.555Z,71.82
2022-10-09T07:46:03.925Z,70.54
2022-10-09T07:48:30.869Z,69.45
2022-10-09T07:50:57.760Z,69.40
2022-10-09T07:53:24.372Z,68.51
2022-10-09T07:55:50.964Z,68.57
2022-10-09T07:58:17.849Z,68.86
2022-10-09T08:00:44.455Z,68.73
2022-10-09T08:03:11.043Z,68.80
2022-10-09T08:05:37.780Z,67.54
2022-10-09T08:08:04.918Z,66.58
2022-10-09T08:10:32.254Z,66.94
2022-10-09T08:12:59.093Z,66.52
2022-10-09T08:15:27.108Z,66.07
2022-10-09T08:17:55.048Z,66.50
2022-10-09T08:20:21.806Z,66.96
2022-10-09T08:22:48.626Z,66.45
2022-10-09T08:25:15.449Z,66.84
2022-10-09T08:27:42.100Z,66.22
2022-10-09T08:30:09.094Z,66.90
2022-10-09T08:32:35.649Z,66.66
2022-10-09T08:35:02.244Z,66.11
2022-10-09T08:37:28.761Z,65.16
2022-10-09T08:39:59.765Z,65.78
2022-10-09T08:42:32.576Z,65.14
2022-10-09T08:44:59.411Z,65.47
2022-10-09T08:47:33.197Z,65.59
2022-10-09T08:50:09.012Z,65.10
2022-10-09T08:52:49.871Z,64.87
2022-10-09T08:55:26.657Z,64.03
2022-10-09T08:57:55.931Z,64.31
2022-10-09T09:00:27.151Z,63.49
2022-10-09T09:03:23.856Z,60.83
2022-10-09T09:05:56.419Z,61.02
2022-10-09T09:08:28.851Z,61.11
2022-10-09T09:11:20.600Z,59.06
2022-10-09T09:14:15.133Z,59.64
2022-10-09T09:17:00.968Z,59.70
2022-10-09T09:19:59.443Z,59.13
2022-10-09T09:22:27.240Z,58.33
2022-10-09T09:24:59.061Z,57.56
2022-10-09T09:27:36.811Z,56.96
2022-10-09T09:30:18.369Z,57.45
2022-10-09T09:33:11.547Z,57.06
2022-10-09T09:35:49.729Z,55.43
2022-10-09T09:38:16.768Z,54.92
2022-10-09T09:40:47.262Z,55.25
2022-10-09T09:43:20.097Z,54.42
2022-10-09T09:45:47.705Z,53.90
2022-10-09T09:48:20.400Z,53.51
2022-10-09T09:51:04.985Z,52.70
2022-10-09T09:53:45.875Z,53.05
2022-10-09T09:56:12.572Z,52.94
2022-10-09T09:58:40.791Z,52.62
2022-10-09T10:01:13.602Z,52.40
2022-10-09T10:03:50.244Z,52.01
2022-10-09T10:06:29.881Z,52.14
2022-10-09T10:09:18.244Z,52.07
2022-10-09T10:11:49.536Z,51.62
2022-10-09T10:14:18.022Z,50.81
2022-10-09T10:16:50.014Z,50.92
2022-10-09T10:19:38.811Z,49.45
2022-10-09T10:22:07.937Z,49.64
2022-10-09T10:24:42.760Z,49.74
2022-10-09T10:27:17.727Z,49.16
2022-10-09T10:29:46.754Z,49.27
2022-10-09T10:32:25.627Z,49.73
2022-10-09T10:35:04.411Z,49.47
2022-10-09T10:37:33.642Z,49.42
2022-10-09T10:40:12.588Z,48.88
2022-10-09T10:43:07.932Z,48.80
2022-10-09T10:45:58.553Z,48.40
2022-10-09T10:48:50.552Z,48.50
2022-10-09T10:51:17.045Z,48.40
2022-10-09T10:53:59.409Z,49.04
2022-10-09T10:56:38.757Z,48.79
2022-10-09T10:59:24.890Z,49.03
2022-10-09T11:02:17.494Z,48.88
2022-10-09T11:05:22.969Z,48.46
2022-10-09T11:07:59.789Z,48.82
2022-10-09T11:10:38.497Z,48.61
2022-10-09T11:13:21.228Z,48.30
2022-10-09T11:16:05.978Z,48.29
2022-10-09T11:19:04.241Z,47.96
2022-10-09T11:21:58.817Z,47.66
2022-10-09T11:24:57.801Z,48.29
2022-10-09T11:27:34.506Z,47.68
2022-10-09T11:30:08.399Z,47.79
2022-10-09T11:32:43.882Z,48.23
2022-10-09T11:35:20.683Z,48.29
2022-10-09T11:37:58.693Z,47.98
2022-10-09T11:40:40.147Z,47.32
2022-10-09T11:43:22.079Z,48.15
2022-10-09T11:46:15.001Z,46.98
2022-10-09T11:49:15.979Z,47.79
2022-10-09T11:51:50.443Z,47.55
2022-10-09T11:54:20.077Z,47.39
2022-10-09T11:57:15.510Z,46.90
2022-10-09T11:59:42.607Z,47.22
2022-10-09T12:02:21.251Z,46.95
2022-10-09T12:04:55.905Z,47.27
2022-10-09T12:07:30.196Z,47.46
2022-10-09T12:10:09.061Z,46.90
2022-10-09T12:12:38.857Z,47.11
2022-10-09T12:15:25.897Z,47.08
2022-10-09T12:17:52.610Z,47.10
2022-10-09T12:20:25.458Z,46.47
2022-10-09T12:23:24.728Z,46.32
2022-10-09T12:25:45.993Z,46.06
2022-10-09T12:28:29.139Z,46.33
2022-10-09T12:30:59.583Z,46.63
2022-10-09T12:33:29.667Z,46.31
2022-10-09T12:36:06.503Z,45.98
2022-10-09T12:38:33.467Z,45.87
2022-10-09T12:41:05.066Z,45.75
2022-10-09T12:43:33.187Z,46.47
2022-10-09T12:46:00.206Z,45.47
2022-10-09T12:48:29.321Z,45.25
2022-10-09T12:50:56.435Z,45.74
2022-10-09T12:53:28.233Z,45.54
2022-10-09T12:56:00.875Z,45.15
2022-10-09T12:58:37.001Z,45.25
2022-10-09T13:01:06.833Z,45.45
2022-10-09T13:03:37.408Z,45.36
2022-10-09T13:06:46.993Z,44.72
2022-10-09T13:09:22.798Z,44.73
2022-10-09T13:12:06.563Z,44.49
2022-10-09T13:14:41.653Z,44.69
2022-10-09T13:17:28.416Z,44.84
2022-10-09T13:19:57.224Z,44.47
2022-10-09T13:22:31.101Z,43.89
2022-10-09T13:25:01.774Z,43.83
2022-10-09T13:27:32.680Z,43.52
2022-10-09T13:30:00.520Z,43.13
2022-10-09T13:32:27.586Z,43.93
2022-10-09T13:34:55.387Z,42.80
2022-10-09T13:37:25.558Z,42.92
2022-10-09T13:39:58.850Z,42.58
2022-10-09T13:42:28.191Z,43.07
2022-10-09T13:44:54.886Z,40.81
2022-10-09T13:47:24.663Z,42.02
2022-10-09T13:49:51.583Z,41.27
2022-10-09T13:52:18.108Z,41.23
2022-10-09T13:54:45.267Z,41.54
2022-10-09T13:57:12.082Z,41.60
2022-10-09T13:59:39.282Z,41.62
2022-10-09T14:02:05.842Z,40.67
2022-10-09T14:04:32.388Z,41.04
2022-10-09T14:06:59.001Z,40.83
2022-10-09T14:09:25.698Z,41.06
2022-10-09T14:11:52.446Z,41.49
2022-10-09T14:14:19.201Z,40.78
2022-10-09T14:16:49.255Z,40.52
2022-10-09T14:19:16.055Z,40.43
2022-10-09T14:21:43.024Z,40.65
2022-10-09T14:24:10.337Z,39.94
2022-10-09T14:26:37.666Z,40.64
2022-10-09T14:29:04.305Z,40.27
2022-10-09T14:31:30.885Z,40.69
2022-10-09T14:33:59.564Z,40.59
2022-10-09T14:36:26.798Z,39.76
2022-10-09T14:38:53.879Z,39.65
2022-10-09T14:41:20.649Z,39.64
2022-10-09T14:43:48.164Z,39.75
2022-10-09T14:46:17.357Z,40.16
2022-10-09T14:48:45.351Z,40.75
2022-10-09T14:51:17.933Z,41.27
2022-10-09T14:53:44.731Z,41.49
2022-10-09T14:56:14.010Z,41.22
2022-10-09T14:58:40.848Z,41.49
2022-10-09T15:01:11.541Z,41.61
2022-10-09T15:03:38.096Z,41.86
2022-10-09T15:06:07.496Z,42.42
2022-10-09T15:08:36.516Z,42.72
2022-10-09T15:11:03.649Z,42.13
2022-10-09T15:13:30.499Z,42.09
2022-10-09T15:16:04.927Z,41.63
2022-10-09T15:18:31.633Z,42.34
2022-10-09T15:20:59.677Z,43.34
2022-10-09T15:23:27.272Z,43.56
2022-10-09T15:25:56.821Z,43.81
2022-10-09T15:28:24.095Z,44.01
2022-10-09T15:30:53.412Z,44.54
2022-10-09T15:33:22.234Z,45.01
2022-10-09T15:35:51.822Z,45.13
2022-10-09T15:38:21.146Z,45.52
2022-10-09T15:40:50.053Z,45.13
2022-10-09T15:43:19.316Z,45.48
2022-10-09T15:45:46.685Z,45.90
2022-10-09T15:48:21.732Z,45.93
2022-10-09T15:50:51.585Z,46.18
2022-10-09T15:53:19.945Z,46.28
2022-10-09T15:55:48.237Z,47.00
2022-10-09T15:58:16.095Z,46.90
2022-10-09T16:00:47.335Z,46.77
2022-10-09T16:03:15.030Z,47.43
2022-10-09T16:05:48.486Z,47.88
2022-10-09T16:08:16.111Z,47.55
2022-10-09T16:10:48.438Z,48.24
2022-10-09T16:13:16.082Z,47.96
2022-10-09T16:15:44.304Z,48.03
2022-10-09T16:18:11.372Z,48.44
2022-10-09T16:20:40.586Z,48.43
2022-10-09T16:23:08.581Z,48.78
2022-10-09T16:25:36.402Z,48.97
2022-10-09T16:28:03.670Z,49.42
2022-10-09T16:30:30.640Z,50.02
2022-10-09T16:32:57.172Z,50.00
2022-10-09T16:35:23.965Z,50.45
2022-10-09T16:37:53.334Z,51.28
2022-10-09T16:40:25.422Z,51.63
2022-10-09T16:43:02.177Z,52.13
2022-10-09T16:45:29.138Z,52.92
2022-10-09T16:47:59.804Z,53.71
2022-10-09T16:50:26.854Z,53.66
2022-10-09T16:52:53.394Z,53.52
2022-10-09T16:55:19.926Z,54.40
2022-10-09T16:57:46.816Z,54.73
2022-10-09T17:00:16.093Z,54.96
2022-10-09T17:02:45.541Z,55.77
2022-10-09T17:05:12.133Z,56.78
2022-10-09T17:07:38.709Z,56.79
2022-10-09T17:10:05.931Z,57.71
2022-10-09T17:12:32.690Z,58.63
2022-10-09T17:14:59.663Z,59.28
2022-10-09T17:17:27.561Z,60.82
2022-10-09T17:19:54.335Z,61.33
2022-10-09T17:22:21.021Z,62.34
2022-10-09T17:24:47.621Z,62.57
2022-10-09T17:27:14.328Z,62.78
2022-10-09T17:29:40.943Z,63.38
2022-10-09T17:32:09.282Z,64.08
2022-10-09T17:34:35.978Z,63.95
2022-10-09T17:37:02.602Z,64.31
2022-10-09T17:39:29.513Z,64.35
2022-10-09T17:41:56.222Z,64.87
2022-10-09T17:44:23.496Z,64.88
2022-10-09T17:46:50.012Z,65.08
2022-10-09T17:49:16.618Z,65.26
2022-10-09T17:51:43.193Z,65.70
2022-10-09T17:54:15.556Z,66.14
2022-10-09T17:56:42.404Z,66.24
2022-10-09T17:59:09.437Z,66.73
2022-10-09T18:01:36.999Z,66.54
2022-10-09T18:04:03.980Z,67.58
2022-10-09T18:06:32.768Z,68.09
2022-10-09T18:08:59.486Z,69.19
2022-10-09T18:11:26.885Z,69.14
2022-10-09T18:13:54.628Z,69.71
2022-10-09T18:16:36.474Z,70.54
2022-10-09T18:19:14.701Z,70.64
2022-10-09T18:21:43.736Z,70.80
2022-10-09T18:24:11.156Z,70.88
2022-10-09T18:26:37.966Z,71.14
2022-10-09T18:29:04.826Z,71.84
2022-10-09T18:31:31.974Z,71.90
2022-10-09T18:33:59.542Z,72.03
2022-10-09T18:36:31.631Z,72.83
2022-10-09T18:39:04.944Z,72.87
2022-10-09T18:41:32.366Z,73.14
2022-10-09T18:44:00.145Z,72.60
2022-10-09T18:46:29.121Z,72.64
2022-10-09T18:48:55.907Z,73.54
2022-10-09T18:51:25.980Z,73.65
2022-10-09T18:53:56.119Z,72.56
2022-10-09T18:56:22.985Z,73.10
2022-10-09T18:58:52.134Z,73.16
2022-10-09T19:01:19.691Z,73.60
2022-10-09T19:03:49.919Z,73.63
2022-10-09T19:06:18.317Z,74.11
2022-10-09T19:08:45.156Z,74.26
2022-10-09T19:11:14.317Z,74.59
2022-10-09T19:13:42.258Z,74.58
2022-10-09T19:16:09.899Z,74.37
2022-10-09T19:18:37.046Z,74.97
2022-10-09T19:21:03.963Z,74.59
2022-10-09T19:23:30.687Z,74.38
2022-10-09T19:25:58.945Z,74.77
2022-10-09T19:28:30.576Z,74.83
2022-10-09T19:30:57.480Z,74.80
2022-10-09T19:33:24.072Z,74.87
2022-10-09T19:35:55.696Z,74.70
2022-10-09T19:38:22.693Z,74.70
2022-10-09T19:40:50.461Z,74.42
2022-10-09T19:43:19.297Z,74.75
2022-10-09T19:45:49.138Z,74.52
2022-10-09T19:48:17.131Z,74.83
2022-10-09T19:50:45.074Z,74.56
2022-10-09T19:53:12.781Z,75.03
2022-10-09T19:55:39.377Z,74.98
2022-10-09T19:58:06.779Z,75.09
2022-10-09T20:00:33.396Z,74.80
2022-10-09T20:02:59.980Z,74.82
2022-10-09T20:05:26.569Z,75.15
2022-10-09T20:07:53.103Z,75.09
2022-10-09T20:10:19.926Z,74.92
2022-10-09T20:12:46.441Z,74.85
2022-10-09T20:15:13.102Z,74.82
2022-10-09T20:17:39.617Z,74.98
2022-10-09T20:20:06.655Z,74.86
2022-10-09T20:22:33.202Z,75.56
2022-10-09T20:24:59.761Z,75.15
2022-10-09T20:27:26.436Z,75.23
2022-10-09T20:29:53.693Z,75.45
2022-10-09T20:32:20.315Z,76.31
2022-10-09T20:34:46.927Z,76.56
2022-10-09T20:37:13.525Z,76.59
2022-10-09T20:39:40.108Z,76.32
2022-10-09T20:42:06.760Z,76.55
2022-10-09T20:44:33.304Z,76.25
2022-10-09T20:46:59.843Z,76.89
2022-10-09T20:49:26.730Z,77.30
2022-10-09T20:51:53.324Z,77.11
2022-10-09T20:54:21.684Z,77.53
2022-10-09T20:56:48.722Z,77.47
2022-10-09T20:59:16.991Z,77.19
2022-10-09T21:01:43.999Z,77.08
2022-10-09T21:04:12.170Z,77.29
2022-10-09T21:06:38.836Z,77.74
2022-10-09T21:09:05.715Z,77.02
2022-10-09T21:11:34.561Z,77.40
2022-10-09T21:14:02.453Z,77.35
2022-10-09T21:16:29.480Z,76.80
2022-10-09T21:18:59.102Z,77.17
2022-10-09T21:21:26.614Z,76.90
2022-10-09T21:23:55.044Z,76.84
2022-10-09T21:26:22.888Z,76.34
2022-10-09T21:28:50.107Z,76.56
2022-10-09T21:31:19.601Z,76.51
2022-10-09T21:33:47.385Z,76.69
2022-10-09T21:36:28.406Z,76.63
2022-10-09T21:38:54.954Z,77.26
2022-10-09T21:41:22.013Z,76.95
2022-10-09T21:43:48.566Z,77.27
2022-10-09T21:46:15.124Z,77.06
2022-10-09T21:48:41.637Z,76.90
2022-10-09T21:51:08.172Z,77.16
2022-10-09T21:53:34.835Z,77.02
2022-10-09T21:56:04.897Z,77.17
2022-10-09T21:58:31.525Z,76.91
2022-10-09T22:01:00.410Z,76.73
2022-10-09T22:03:28.715Z,77.17
2022-10-09T22:05:55.469Z,78.11
2022-10-09T22:08:23.518Z,78.86
2022-10-09T22:10:50.224Z,78.74
2022-10-09T22:13:17.590Z,78.93
2022-10-09T22:15:48.811Z,79.93
2022-10-09T22:18:17.559Z,79.32
2022-10-09T22:20:47.592Z,79.21
2022-10-09T22:23:14.915Z,79.61
2022-10-09T22:25:41.439Z,79.83
2022-10-09T22:28:08.093Z,78.40
2022-10-09T22:30:34.754Z,79.63
2022-10-09T22:33:01.309Z,80.29
2022-10-09T22:35:27.931Z,80.44
2022-10-09T22:37:54.496Z,81.36
2022-10-09T22:40:21.582Z,80.73
2022-10-09T22:42:48.567Z,80.56
2022-10-09T22:45:15.312Z,79.74
2022-10-09T22:47:41.857Z,81.39
2022-10-09T22:50:08.766Z,80.88
2022-10-09T22:52:35.422Z,80.38
2022-10-09T22:55:02.175Z,80.08
2022-10-09T22:57:28.711Z,79.80
2022-10-09T22:59:55.256Z,79.08
2022-10-09T23:02:21.843Z,78.14
2022-10-09T23:04:48.403Z,78.20
2022-10-09T23:07:15.040Z,78.00
2022-10-09T23:09:41.569Z,77.81
2022-10-09T23:12:08.205Z,78.33
2022-10-09T23:14:34.843Z,78.48
2022-10-09T23:17:01.369Z,78.06
2022-10-09T23:19:27.950Z,78.38
2022-10-09T23:21:54.537Z,78.65
2022-10-09T23:24:21.131Z,77.99
2022-10-09T23:26:50.848Z,78.71
2022-10-09T23:29:19.444Z,79.51
2022-10-09T23:31:46.659Z,79.22
2022-10-09T23:34:13.318Z,79.60
2022-10-09T23:36:39.901Z,80.02
2022-10-09T23:39:07.258Z,79.55
2022-10-09T23:41:34.325Z,80.01
2022-10-09T23:44:00.898Z,80.66
2022-10-09T23:46:30.098Z,80.82
2022-10-09T23:48:57.316Z,81.05
2022-10-09T23:51:25.689Z,81.76
2022-10-09T23:53:52.822Z,82.72
2022-10-09T23:56:24.424Z,83.62
2022-10-09T23:58:51.985Z,83.10
